sensor_id;sensor_type;location;lat;lon;timestamp;temperature;humidity
71175;DHT22;58876;51.994;4.472;2023-03-14T00:01:22;11.63;73.34
71175;DHT22;58876;51.994;4.472;2023-03-14T00:03:49;11.60;73.42
71175;DHT22;58876;51.994;4.472;2023-03-14T00:06:15;11.59;73.69
71175;DHT22;58876;51.994;4.472;2023-03-14T00:08:43;11.56;73.76
71175;DHT22;58876;51.994;4.472;2023-03-14T00:11:18;11.58;73.66
71175;DHT22;58876;51.994;4.472;2023-03-14T00:13:50;11.58;73.72
71175;DHT22;58876;51.994;4.472;2023-03-14T00:16:16;11.52;74.04
71175;DHT22;58876;51.994;4.472;2023-03-14T00:18:42;11.43;74.33
71175;DHT22;58876;51.994;4.472;2023-03-14T00:21:09;11.44;74.53
71175;DHT22;58876;51.994;4.472;2023-03-14T00:23:37;11.28;75.77
71175;DHT22;58876;51.994;4.472;2023-03-14T00:26:06;11.21;76.40
71175;DHT22;58876;51.994;4.472;2023-03-14T00:28:32;11.28;76.51
71175;DHT22;58876;51.994;4.472;2023-03-14T00:30:57;11.07;77.65
71175;DHT22;58876;51.994;4.472;2023-03-14T00:33:23;11.05;77.71
71175;DHT22;58876;51.994;4.472;2023-03-14T00:36:03;11.09;77.78
71175;DHT22;58876;51.994;4.472;2023-03-14T00:38:31;11.00;78.44
71175;DHT22;58876;51.994;4.472;2023-03-14T00:40:56;10.92;78.90
71175;DHT22;58876;51.994;4.472;2023-03-14T00:43:22;10.95;78.90
71175;DHT22;58876;51.994;4.472;2023-03-14T00:45:52;10.92;79.12
71175;DHT22;58876;51.994;4.472;2023-03-14T00:48:19;10.98;79.08
71175;DHT22;58876;51.994;4.472;2023-03-14T00:50:45;10.95;78.90
71175;DHT22;58876;51.994;4.472;2023-03-14T00:53:11;10.78;79.60
71175;DHT22;58876;51.994;4.472;2023-03-14T00:55:38;10.90;79.37
71175;DHT22;58876;51.994;4.472;2023-03-14T00:58:04;10.84;79.32
71175;DHT22;58876;51.994;4.472;2023-03-14T01:00:29;10.81;79.69
71175;DHT22;58876;51.994;4.472;2023-03-14T01:02:55;10.91;79.33
71175;DHT22;58876;51.994;4.472;2023-03-14T01:05:22;10.85;79.76
71175;DHT22;58876;51.994;4.472;2023-03-14T01:07:47;10.87;79.86
71175;DHT22;58876;51.994;4.472;2023-03-14T01:10:13;10.85;79.95
71175;DHT22;58876;51.994;4.472;2023-03-14T01:12:38;10.78;80.05
71175;DHT22;58876;51.994;4.472;2023-03-14T01:15:04;10.71;80.29
71175;DHT22;58876;51.994;4.472;2023-03-14T01:17:30;10.65;80.50
71175;DHT22;58876;51.994;4.472;2023-03-14T01:19:55;10.72;80.03
71175;DHT22;58876;51.994;4.472;2023-03-14T01:22:20;10.71;80.32
71175;DHT22;58876;51.994;4.472;2023-03-14T01:24:47;10.72;80.18
71175;DHT22;58876;51.994;4.472;2023-03-14T01:27:12;10.72;80.23
71175;DHT22;58876;51.994;4.472;2023-03-14T01:29:38;10.82;79.61
71175;DHT22;58876;51.994;4.472;2023-03-14T01:32:04;10.77;80.06
71175;DHT22;58876;51.994;4.472;2023-03-14T01:34:29;10.85;79.61
71175;DHT22;58876;51.994;4.472;2023-03-14T01:36:55;10.92;79.21
71175;DHT22;58876;51.994;4.472;2023-03-14T01:39:20;10.80;79.69
71175;DHT22;58876;51.994;4.472;2023-03-14T01:41:45;10.84;79.55
71175;DHT22;58876;51.994;4.472;2023-03-14T01:44:12;10.88;79.21
71175;DHT22;58876;51.994;4.472;2023-03-14T01:46:43;10.88;79.18
71175;DHT22;58876;51.994;4.472;2023-03-14T01:49:24;10.87;79.18
71175;DHT22;58876;51.994;4.472;2023-03-14T01:51:59;10.88;79.22
71175;DHT22;58876;51.994;4.472;2023-03-14T01:54:32;10.92;78.96
71175;DHT22;58876;51.994;4.472;2023-03-14T01:57:08;11.04;78.48
71175;DHT22;58876;51.994;4.472;2023-03-14T01:59:37;10.95;78.78
71175;DHT22;58876;51.994;4.472;2023-03-14T02:02:05;10.88;78.82
71175;DHT22;58876;51.994;4.472;2023-03-14T02:04:38;11.05;78.38
71175;DHT22;58876;51.994;4.472;2023-03-14T02:07:27;10.95;78.58
71175;DHT22;58876;51.994;4.472;2023-03-14T02:09:50;11.02;78.38
71175;DHT22;58876;51.994;4.472;2023-03-14T02:12:18;11.04;78.25
71175;DHT22;58876;51.994;4.472;2023-03-14T02:14:45;10.87;78.45
71175;DHT22;58876;51.994;4.472;2023-03-14T02:17:16;10.85;78.53
71175;DHT22;58876;51.994;4.472;2023-03-14T02:22:26;10.88;78.42
71175;DHT22;58876;51.994;4.472;2023-03-14T02:27:36;10.95;78.24
71175;DHT22;58876;51.994;4.472;2023-03-14T02:32:31;10.84;78.56
71175;DHT22;58876;51.994;4.472;2023-03-14T02:35:00;10.92;78.57
71175;DHT22;58876;51.994;4.472;2023-03-14T02:37:35;10.87;79.82
71175;DHT22;58876;51.994;4.472;2023-03-14T02:40:02;10.74;80.33
71175;DHT22;58876;51.994;4.472;2023-03-14T02:42:29;10.64;80.93
71175;DHT22;58876;51.994;4.472;2023-03-14T02:47:52;10.63;81.10
71175;DHT22;58876;51.994;4.472;2023-03-14T02:50:21;10.65;80.87
71175;DHT22;58876;51.994;4.472;2023-03-14T02:52:48;10.71;80.73
71175;DHT22;58876;51.994;4.472;2023-03-14T02:55:13;10.75;80.36
71175;DHT22;58876;51.994;4.472;2023-03-14T02:57:39;10.78;80.21
71175;DHT22;58876;51.994;4.472;2023-03-14T03:00:05;10.71;80.15
71175;DHT22;58876;51.994;4.472;2023-03-14T03:02:31;10.75;79.98
71175;DHT22;58876;51.994;4.472;2023-03-14T03:04:56;10.78;79.90
71175;DHT22;58876;51.994;4.472;2023-03-14T03:07:22;10.90;79.54
71175;DHT22;58876;51.994;4.472;2023-03-14T03:09:47;10.81;79.60
71175;DHT22;58876;51.994;4.472;2023-03-14T03:12:13;10.85;79.60
71175;DHT22;58876;51.994;4.472;2023-03-14T03:14:38;10.84;79.48
71175;DHT22;58876;51.994;4.472;2023-03-14T03:17:05;10.95;79.03
71175;DHT22;58876;51.994;4.472;2023-03-14T03:19:31;11.02;78.75
71175;DHT22;58876;51.994;4.472;2023-03-14T03:21:57;10.90;79.08
71175;DHT22;58876;51.994;4.472;2023-03-14T03:24:23;10.97;78.99
71175;DHT22;58876;51.994;4.472;2023-03-14T03:26:49;11.04;78.59
71175;DHT22;58876;51.994;4.472;2023-03-14T03:29:15;10.97;78.69
71175;DHT22;58876;51.994;4.472;2023-03-14T03:31:41;10.88;79.11
71175;DHT22;58876;51.994;4.472;2023-03-14T03:34:06;10.88;79.13
71175;DHT22;58876;51.994;4.472;2023-03-14T03:36:32;10.90;79.08
71175;DHT22;58876;51.994;4.472;2023-03-14T03:38:57;10.88;79.18
71175;DHT22;58876;51.994;4.472;2023-03-14T03:41:23;10.88;79.13
71175;DHT22;58876;51.994;4.472;2023-03-14T03:43:48;10.88;79.12
71175;DHT22;58876;51.994;4.472;2023-03-14T03:46:14;10.80;79.31
71175;DHT22;58876;51.994;4.472;2023-03-14T03:48:40;10.85;79.25
71175;DHT22;58876;51.994;4.472;2023-03-14T03:51:06;10.81;79.51
71175;DHT22;58876;51.994;4.472;2023-03-14T03:53:32;10.91;79.24
71175;DHT22;58876;51.994;4.472;2023-03-14T03:55:57;10.92;79.12
71175;DHT22;58876;51.994;4.472;2023-03-14T03:58:23;10.90;79.39
71175;DHT22;58876;51.994;4.472;2023-03-14T04:00:48;10.90;79.46
71175;DHT22;58876;51.994;4.472;2023-03-14T04:03:13;10.92;79.18
71175;DHT22;58876;51.994;4.472;2023-03-14T04:05:39;10.91;79.17
71175;DHT22;58876;51.994;4.472;2023-03-14T04:08:05;10.92;79.25
71175;DHT22;58876;51.994;4.472;2023-03-14T04:10:34;10.87;80.67
71175;DHT22;58876;51.994;4.472;2023-03-14T04:13:00;10.68;82.18
71175;DHT22;58876;51.994;4.472;2023-03-14T04:15:25;10.59;83.42
71175;DHT22;58876;51.994;4.472;2023-03-14T04:17:51;10.46;84.04
71175;DHT22;58876;51.994;4.472;2023-03-14T04:20:16;10.36;84.63
71175;DHT22;58876;51.994;4.472;2023-03-14T04:22:42;10.36;85.22
71175;DHT22;58876;51.994;4.472;2023-03-14T04:25:07;10.26;85.75
71175;DHT22;58876;51.994;4.472;2023-03-14T04:27:33;10.23;85.69
71175;DHT22;58876;51.994;4.472;2023-03-14T04:29:58;10.20;85.96
71175;DHT22;58876;51.994;4.472;2023-03-14T04:32:24;10.23;85.96
71175;DHT22;58876;51.994;4.472;2023-03-14T04:34:49;10.19;85.98
71175;DHT22;58876;51.994;4.472;2023-03-14T04:37:14;10.28;85.97
71175;DHT22;58876;51.994;4.472;2023-03-14T04:39:40;10.24;85.84
71175;DHT22;58876;51.994;4.472;2023-03-14T04:42:05;10.24;86.24
71175;DHT22;58876;51.994;4.472;2023-03-14T04:44:31;10.20;86.29
71175;DHT22;58876;51.994;4.472;2023-03-14T04:46:56;10.10;86.88
71175;DHT22;58876;51.994;4.472;2023-03-14T04:49:22;10.19;86.98
71175;DHT22;58876;51.994;4.472;2023-03-14T04:51:48;10.16;87.30
71175;DHT22;58876;51.994;4.472;2023-03-14T04:54:16;10.06;87.45
71175;DHT22;58876;51.994;4.472;2023-03-14T04:56:42;10.02;87.73
71175;DHT22;58876;51.994;4.472;2023-03-14T04:59:08;10.02;88.06
71175;DHT22;58876;51.994;4.472;2023-03-14T05:01:34;9.96;88.24
71175;DHT22;58876;51.994;4.472;2023-03-14T05:03:59;10.02;88.52
71175;DHT22;58876;51.994;4.472;2023-03-14T05:06:25;10.06;88.21
71175;DHT22;58876;51.994;4.472;2023-03-14T05:08:50;10.05;88.44
71175;DHT22;58876;51.994;4.472;2023-03-14T05:11:16;10.08;88.27
71175;DHT22;58876;51.994;4.472;2023-03-14T05:13:41;10.03;88.56
71175;DHT22;58876;51.994;4.472;2023-03-14T05:16:09;9.82;88.75
71175;DHT22;58876;51.994;4.472;2023-03-14T05:18:35;9.83;89.13
71175;DHT22;58876;51.994;4.472;2023-03-14T05:21:01;9.96;88.81
71175;DHT22;58876;51.994;4.472;2023-03-14T05:23:27;9.98;88.85
71175;DHT22;58876;51.994;4.472;2023-03-14T05:25:53;9.88;89.21
71175;DHT22;58876;51.994;4.472;2023-03-14T05:28:19;9.67;89.02
71175;DHT22;58876;51.994;4.472;2023-03-14T05:30:44;8.94;88.56
71175;DHT22;58876;51.994;4.472;2023-03-14T05:33:09;8.93;88.89
71175;DHT22;58876;51.994;4.472;2023-03-14T05:35:35;8.79;88.57
71175;DHT22;58876;51.994;4.472;2023-03-14T05:38:01;8.77;88.65
71175;DHT22;58876;51.994;4.472;2023-03-14T05:40:26;8.77;88.22
71175;DHT22;58876;51.994;4.472;2023-03-14T05:42:52;8.72;88.59
71175;DHT22;58876;51.994;4.472;2023-03-14T05:45:18;8.62;88.25
71175;DHT22;58876;51.994;4.472;2023-03-14T05:47:43;8.59;88.27
71175;DHT22;58876;51.994;4.472;2023-03-14T05:50:09;8.49;88.43
71175;DHT22;58876;51.994;4.472;2023-03-14T05:52:38;8.51;88.54
71175;DHT22;58876;51.994;4.472;2023-03-14T05:55:04;8.48;88.69
71175;DHT22;58876;51.994;4.472;2023-03-14T05:57:30;8.52;88.47
71175;DHT22;58876;51.994;4.472;2023-03-14T05:59:55;8.58;88.37
71175;DHT22;58876;51.994;4.472;2023-03-14T06:02:21;8.58;88.47
71175;DHT22;58876;51.994;4.472;2023-03-14T06:04:46;8.45;88.31
71175;DHT22;58876;51.994;4.472;2023-03-14T06:07:11;8.35;88.56
71175;DHT22;58876;51.994;4.472;2023-03-14T06:09:37;8.35;88.68
71175;DHT22;58876;51.994;4.472;2023-03-14T06:12:05;8.35;88.60
71175;DHT22;58876;51.994;4.472;2023-03-14T06:14:31;8.27;88.55
71175;DHT22;58876;51.994;4.472;2023-03-14T06:16:56;8.25;88.74
71175;DHT22;58876;51.994;4.472;2023-03-14T06:19:24;8.20;88.83
71175;DHT22;58876;51.994;4.472;2023-03-14T06:21:50;8.27;89.12
71175;DHT22;58876;51.994;4.472;2023-03-14T06:24:16;8.18;89.08
71175;DHT22;58876;51.994;4.472;2023-03-14T06:26:41;8.24;89.05
71175;DHT22;58876;51.994;4.472;2023-03-14T06:29:10;8.24;88.83
71175;DHT22;58876;51.994;4.472;2023-03-14T06:31:36;8.11;88.91
71175;DHT22;58876;51.994;4.472;2023-03-14T06:34:02;8.08;89.23
71175;DHT22;58876;51.994;4.472;2023-03-14T06:36:27;8.05;89.07
71175;DHT22;58876;51.994;4.472;2023-03-14T06:38:53;8.04;88.49
71175;DHT22;58876;51.994;4.472;2023-03-14T06:41:19;7.97;87.90
71175;DHT22;58876;51.994;4.472;2023-03-14T06:43:44;8.05;88.17
71175;DHT22;58876;51.994;4.472;2023-03-14T06:46:10;8.10;87.84
71175;DHT22;58876;51.994;4.472;2023-03-14T06:48:35;7.97;87.52
71175;DHT22;58876;51.994;4.472;2023-03-14T06:51:00;7.97;87.38
71175;DHT22;58876;51.994;4.472;2023-03-14T06:53:26;8.07;87.39
71175;DHT22;58876;51.994;4.472;2023-03-14T06:55:51;8.11;86.72
71175;DHT22;58876;51.994;4.472;2023-03-14T06:58:17;8.11;87.08
71175;DHT22;58876;51.994;4.472;2023-03-14T07:00:43;8.18;86.88
71175;DHT22;58876;51.994;4.472;2023-03-14T07:03:09;8.11;86.90
71175;DHT22;58876;51.994;4.472;2023-03-14T07:05:38;8.10;87.40
71175;DHT22;58876;51.994;4.472;2023-03-14T07:08:06;8.18;87.01
71175;DHT22;58876;51.994;4.472;2023-03-14T07:10:32;8.27;87.11
71175;DHT22;58876;51.994;4.472;2023-03-14T07:12:58;8.35;86.82
71175;DHT22;58876;51.994;4.472;2023-03-14T07:15:23;8.28;86.50
71175;DHT22;58876;51.994;4.472;2023-03-14T07:17:49;8.24;86.70
71175;DHT22;58876;51.994;4.472;2023-03-14T07:20:14;8.15;86.92
71175;DHT22;58876;51.994;4.472;2023-03-14T07:22:40;8.21;87.01
71175;DHT22;58876;51.994;4.472;2023-03-14T07:25:06;8.30;86.97
71175;DHT22;58876;51.994;4.472;2023-03-14T07:27:31;8.30;86.70
71175;DHT22;58876;51.994;4.472;2023-03-14T07:29:57;8.24;86.48
71175;DHT22;58876;51.994;4.472;2023-03-14T07:32:22;8.15;87.43
71175;DHT22;58876;51.994;4.472;2023-03-14T07:34:48;8.13;87.53
71175;DHT22;58876;51.994;4.472;2023-03-14T07:37:13;8.04;87.75
71175;DHT22;58876;51.994;4.472;2023-03-14T07:39:42;7.94;88.05
71175;DHT22;58876;51.994;4.472;2023-03-14T07:42:07;7.93;88.28
71175;DHT22;58876;51.994;4.472;2023-03-14T07:44:33;7.96;88.36
71175;DHT22;58876;51.994;4.472;2023-03-14T07:46:58;7.89;88.48
71175;DHT22;58876;51.994;4.472;2023-03-14T07:49:24;7.55;87.54
71175;DHT22;58876;51.994;4.472;2023-03-14T07:51:49;7.28;87.84
71175;DHT22;58876;51.994;4.472;2023-03-14T07:54:15;7.09;88.18
71175;DHT22;58876;51.994;4.472;2023-03-14T07:56:41;7.12;88.07
71175;DHT22;58876;51.994;4.472;2023-03-14T07:59:06;7.14;87.73
71175;DHT22;58876;51.994;4.472;2023-03-14T08:01:32;7.15;87.73
71175;DHT22;58876;51.994;4.472;2023-03-14T08:03:58;7.14;88.01
71175;DHT22;58876;51.994;4.472;2023-03-14T08:06:24;7.26;87.75
71175;DHT22;58876;51.994;4.472;2023-03-14T08:08:49;7.08;86.56
71175;DHT22;58876;51.994;4.472;2023-03-14T08:11:15;7.03;86.84
71175;DHT22;58876;51.994;4.472;2023-03-14T08:13:40;7.08;85.95
71175;DHT22;58876;51.994;4.472;2023-03-14T08:16:06;7.14;86.28
71175;DHT22;58876;51.994;4.472;2023-03-14T08:18:31;7.31;86.62
71175;DHT22;58876;51.994;4.472;2023-03-14T08:20:57;7.41;86.43
71175;DHT22;58876;51.994;4.472;2023-03-14T08:23:23;7.32;86.14
71175;DHT22;58876;51.994;4.472;2023-03-14T08:25:49;7.36;85.99
71175;DHT22;58876;51.994;4.472;2023-03-14T08:28:16;7.14;86.36
71175;DHT22;58876;51.994;4.472;2023-03-14T08:30:41;7.15;86.16
71175;DHT22;58876;51.994;4.472;2023-03-14T08:33:07;6.93;86.15
71175;DHT22;58876;51.994;4.472;2023-03-14T08:35:33;6.83;86.71
71175;DHT22;58876;51.994;4.472;2023-03-14T08:37:59;6.76;85.69
71175;DHT22;58876;51.994;4.472;2023-03-14T08:40:24;6.47;83.80
71175;DHT22;58876;51.994;4.472;2023-03-14T08:42:50;6.42;82.75
71175;DHT22;58876;51.994;4.472;2023-03-14T08:45:16;6.66;82.48
71175;DHT22;58876;51.994;4.472;2023-03-14T08:47:43;6.73;81.01
71175;DHT22;58876;51.994;4.472;2023-03-14T08:50:10;6.97;80.45
71175;DHT22;58876;51.994;4.472;2023-03-14T08:52:36;7.24;80.81
71175;DHT22;58876;51.994;4.472;2023-03-14T08:55:03;7.46;79.76
71175;DHT22;58876;51.994;4.472;2023-03-14T08:57:29;7.44;79.17
71175;DHT22;58876;51.994;4.472;2023-03-14T08:59:55;7.67;79.43
71175;DHT22;58876;51.994;4.472;2023-03-14T09:02:22;7.44;78.90
71175;DHT22;58876;51.994;4.472;2023-03-14T09:04:47;7.63;79.24
71175;DHT22;58876;51.994;4.472;2023-03-14T09:07:13;7.79;78.49
71175;DHT22;58876;51.994;4.472;2023-03-14T09:09:38;7.79;78.37
71175;DHT22;58876;51.994;4.472;2023-03-14T09:12:04;7.69;78.50
71175;DHT22;58876;51.994;4.472;2023-03-14T09:14:30;7.72;77.89
71175;DHT22;58876;51.994;4.472;2023-03-14T09:16:57;7.74;77.77
71175;DHT22;58876;51.994;4.472;2023-03-14T09:19:22;8.01;78.18
71175;DHT22;58876;51.994;4.472;2023-03-14T09:21:48;7.84;77.25
71175;DHT22;58876;51.994;4.472;2023-03-14T09:24:14;7.80;77.26
71175;DHT22;58876;51.994;4.472;2023-03-14T09:26:39;7.62;76.93
71175;DHT22;58876;51.994;4.472;2023-03-14T09:29:05;7.72;77.40
71175;DHT22;58876;51.994;4.472;2023-03-14T09:31:30;7.63;76.73
71175;DHT22;58876;51.994;4.472;2023-03-14T09:33:56;7.46;77.78
71175;DHT22;58876;51.994;4.472;2023-03-14T09:36:22;7.44;79.09
71175;DHT22;58876;51.994;4.472;2023-03-14T09:38:47;6.87;82.38
71175;DHT22;58876;51.994;4.472;2023-03-14T09:41:36;6.73;83.12
71175;DHT22;58876;51.994;4.472;2023-03-14T09:44:14;6.62;83.56
71175;DHT22;58876;51.994;4.472;2023-03-14T09:46:45;6.33;84.09
71175;DHT22;58876;51.994;4.472;2023-03-14T09:49:29;6.50;83.06
71175;DHT22;58876;51.994;4.472;2023-03-14T09:52:00;7.05;82.41
71175;DHT22;58876;51.994;4.472;2023-03-14T09:54:34;7.32;81.15
71175;DHT22;58876;51.994;4.472;2023-03-14T09:57:00;7.51;80.49
71175;DHT22;58876;51.994;4.472;2023-03-14T09:59:29;7.59;79.50
71175;DHT22;58876;51.994;4.472;2023-03-14T10:02:00;7.77;78.90
71175;DHT22;58876;51.994;4.472;2023-03-14T10:04:28;7.98;78.56
71175;DHT22;58876;51.994;4.472;2023-03-14T10:06:55;7.52;78.62
71175;DHT22;58876;51.994;4.472;2023-03-14T10:09:23;7.79;79.81
71175;DHT22;58876;51.994;4.472;2023-03-14T10:11:56;7.69;78.66
71175;DHT22;58876;51.994;4.472;2023-03-14T10:14:30;7.62;77.28
71175;DHT22;58876;51.994;4.472;2023-03-14T10:17:05;7.67;76.23
71175;DHT22;58876;51.994;4.472;2023-03-14T10:19:32;7.70;76.81
71175;DHT22;58876;51.994;4.472;2023-03-14T10:22:01;7.90;76.08
71175;DHT22;58876;51.994;4.472;2023-03-14T10:24:31;7.91;75.13
71175;DHT22;58876;51.994;4.472;2023-03-14T10:27:06;7.87;74.87
71175;DHT22;58876;51.994;4.472;2023-03-14T10:29:53;7.79;74.83
71175;DHT22;58876;51.994;4.472;2023-03-14T10:32:21;7.52;74.07
71175;DHT22;58876;51.994;4.472;2023-03-14T10:35:24;7.84;73.27
71175;DHT22;58876;51.994;4.472;2023-03-14T10:37:57;8.24;72.63
71175;DHT22;58876;51.994;4.472;2023-03-14T10:40:28;8.14;70.61
71175;DHT22;58876;51.994;4.472;2023-03-14T10:42:56;8.40;70.44
71175;DHT22;58876;51.994;4.472;2023-03-14T10:47:59;8.17;69.64
71175;DHT22;58876;51.994;4.472;2023-03-14T10:52:52;8.04;68.85
71175;DHT22;58876;51.994;4.472;2023-03-14T10:55:18;8.04;68.64
71175;DHT22;58876;51.994;4.472;2023-03-14T10:57:44;8.14;68.98
71175;DHT22;58876;51.994;4.472;2023-03-14T11:00:22;8.15;66.36
71175;DHT22;58876;51.994;4.472;2023-03-14T11:03:10;7.98;65.87
71175;DHT22;58876;51.994;4.472;2023-03-14T11:05:57;8.07;66.08
71175;DHT22;58876;51.994;4.472;2023-03-14T11:08:36;8.63;65.40
71175;DHT22;58876;51.994;4.472;2023-03-14T11:17:00;8.41;62.40
71175;DHT22;58876;51.994;4.472;2023-03-14T11:27:23;8.83;61.11
71175;DHT22;58876;51.994;4.472;2023-03-14T11:30:05;8.38;58.58
71175;DHT22;58876;51.994;4.472;2023-03-14T11:35:46;8.71;58.55
71175;DHT22;58876;51.994;4.472;2023-03-14T11:40:52;9.04;54.88
71175;DHT22;58876;51.994;4.472;2023-03-14T11:45:57;8.99;55.45
71175;DHT22;58876;51.994;4.472;2023-03-14T11:51:04;9.03;57.38
71175;DHT22;58876;51.994;4.472;2023-03-14T11:53:50;9.07;57.82
71175;DHT22;58876;51.994;4.472;2023-03-14T11:56:44;8.99;57.06
71175;DHT22;58876;51.994;4.472;2023-03-14T11:59:21;8.66;58.30
71175;DHT22;58876;51.994;4.472;2023-03-14T12:01:58;8.97;57.78
71175;DHT22;58876;51.994;4.472;2023-03-14T12:10:26;8.83;54.61
71175;DHT22;58876;51.994;4.472;2023-03-14T12:12:52;8.87;53.85
71175;DHT22;58876;51.994;4.472;2023-03-14T12:15:21;8.86;52.42
71175;DHT22;58876;51.994;4.472;2023-03-14T12:17:54;8.87;51.77
71175;DHT22;58876;51.994;4.472;2023-03-14T12:20:23;8.85;52.06
71175;DHT22;58876;51.994;4.472;2023-03-14T12:22:56;8.83;53.14
71175;DHT22;58876;51.994;4.472;2023-03-14T12:25:30;8.80;51.30
71175;DHT22;58876;51.994;4.472;2023-03-14T12:35:50;8.93;55.07
71175;DHT22;58876;51.994;4.472;2023-03-14T12:41:14;8.87;52.61
71175;DHT22;58876;51.994;4.472;2023-03-14T12:43:42;8.83;53.72
71175;DHT22;58876;51.994;4.472;2023-03-14T12:46:26;8.68;53.59
71175;DHT22;58876;51.994;4.472;2023-03-14T12:51:46;9.14;55.54
71175;DHT22;58876;51.994;4.472;2023-03-14T12:57:06;9.43;50.43
71175;DHT22;58876;51.994;4.472;2023-03-14T12:59:38;9.20;47.42
71175;DHT22;58876;51.994;4.472;2023-03-14T13:04:43;9.22;50.85
71175;DHT22;58876;51.994;4.472;2023-03-14T13:07:32;9.09;51.12
71175;DHT22;58876;51.994;4.472;2023-03-14T13:15:34;8.69;49.66
71175;DHT22;58876;51.994;4.472;2023-03-14T13:18:17;8.48;50.28
71175;DHT22;58876;51.994;4.472;2023-03-14T13:23:27;8.27;50.79
71175;DHT22;58876;51.994;4.472;2023-03-14T13:25:54;8.51;52.80
71175;DHT22;58876;51.994;4.472;2023-03-14T13:28:20;8.44;53.63
71175;DHT22;58876;51.994;4.472;2023-03-14T13:30:48;8.31;50.62
71175;DHT22;58876;51.994;4.472;2023-03-14T13:33:19;8.37;51.61
71175;DHT22;58876;51.994;4.472;2023-03-14T13:36:00;8.17;49.76
71175;DHT22;58876;51.994;4.472;2023-03-14T13:38:30;8.34;50.50
71175;DHT22;58876;51.994;4.472;2023-03-14T13:40:59;8.34;50.83
71175;DHT22;58876;51.994;4.472;2023-03-14T13:46:11;8.61;49.54
71175;DHT22;58876;51.994;4.472;2023-03-14T13:48:55;8.38;49.06
71175;DHT22;58876;51.994;4.472;2023-03-14T13:51:22;8.21;50.12
71175;DHT22;58876;51.994;4.472;2023-03-14T13:53:55;8.65;52.15
71175;DHT22;58876;51.994;4.472;2023-03-14T13:56:23;8.48;49.37
71175;DHT22;58876;51.994;4.472;2023-03-14T13:58:49;8.11;50.88
71175;DHT22;58876;51.994;4.472;2023-03-14T14:01:31;8.41;51.56
71175;DHT22;58876;51.994;4.472;2023-03-14T14:04:02;8.59;50.89
71175;DHT22;58876;51.994;4.472;2023-03-14T14:06:34;8.31;50.37
71175;DHT22;58876;51.994;4.472;2023-03-14T14:09:11;8.18;48.44
71175;DHT22;58876;51.994;4.472;2023-03-14T14:14:25;8.00;45.63
71175;DHT22;58876;51.994;4.472;2023-03-14T14:16:53;7.86;46.41
71175;DHT22;58876;51.994;4.472;2023-03-14T14:19:22;7.80;49.12
71175;DHT22;58876;51.994;4.472;2023-03-14T14:21:49;7.96;51.42
71175;DHT22;58876;51.994;4.472;2023-03-14T14:24:15;8.28;52.02
71175;DHT22;58876;51.994;4.472;2023-03-14T14:26:51;8.34;52.02
71175;DHT22;58876;51.994;4.472;2023-03-14T14:29:29;8.18;51.34
71175;DHT22;58876;51.994;4.472;2023-03-14T14:34:41;8.10;53.18
71175;DHT22;58876;51.994;4.472;2023-03-14T14:39:45;7.97;52.62
71175;DHT22;58876;51.994;4.472;2023-03-14T14:42:16;8.13;51.98
71175;DHT22;58876;51.994;4.472;2023-03-14T14:44:44;8.07;51.76
71175;DHT22;58876;51.994;4.472;2023-03-14T14:47:15;8.08;51.18
71175;DHT22;58876;51.994;4.472;2023-03-14T14:49:43;8.00;50.62
71175;DHT22;58876;51.994;4.472;2023-03-14T14:52:18;8.13;50.08
71175;DHT22;58876;51.994;4.472;2023-03-14T14:54:53;8.11;49.98
71175;DHT22;58876;51.994;4.472;2023-03-14T14:57:28;8.08;50.70
71175;DHT22;58876;51.994;4.472;2023-03-14T15:00:00;8.31;49.91
71175;DHT22;58876;51.994;4.472;2023-03-14T15:02:49;8.24;46.16
71175;DHT22;58876;51.994;4.472;2023-03-14T15:05:23;8.37;48.13
71175;DHT22;58876;51.994;4.472;2023-03-14T15:07:49;8.66;47.67
71175;DHT22;58876;51.994;4.472;2023-03-14T15:10:18;8.75;46.85
71175;DHT22;58876;51.994;4.472;2023-03-14T15:12:44;8.31;47.92
71175;DHT22;58876;51.994;4.472;2023-03-14T15:15:12;8.15;49.21
71175;DHT22;58876;51.994;4.472;2023-03-14T15:17:38;7.89;47.56
71175;DHT22;58876;51.994;4.472;2023-03-14T15:20:12;7.84;50.03
71175;DHT22;58876;51.994;4.472;2023-03-14T15:22:39;7.89;49.86
71175;DHT22;58876;51.994;4.472;2023-03-14T15:25:05;7.86;49.49
71175;DHT22;58876;51.994;4.472;2023-03-14T15:27:32;7.66;48.03
71175;DHT22;58876;51.994;4.472;2023-03-14T15:29:58;7.72;49.08
71175;DHT22;58876;51.994;4.472;2023-03-14T15:32:26;7.77;49.80
71175;DHT22;58876;51.994;4.472;2023-03-14T15:34:56;7.82;51.39
71175;DHT22;58876;51.994;4.472;2023-03-14T15:37:22;8.10;49.66
71175;DHT22;58876;51.994;4.472;2023-03-14T15:39:47;7.97;49.47
71175;DHT22;58876;51.994;4.472;2023-03-14T15:42:13;8.15;49.80
71175;DHT22;58876;51.994;4.472;2023-03-14T15:44:38;8.14;48.14
71175;DHT22;58876;51.994;4.472;2023-03-14T15:47:09;8.17;49.86
71175;DHT22;58876;51.994;4.472;2023-03-14T15:49:38;8.05;49.39
71175;DHT22;58876;51.994;4.472;2023-03-14T15:52:08;7.87;49.39
71175;DHT22;58876;51.994;4.472;2023-03-14T15:54:37;7.73;52.17
71175;DHT22;58876;51.994;4.472;2023-03-14T15:57:03;7.83;50.63
71175;DHT22;58876;51.994;4.472;2023-03-14T15:59:28;8.15;51.31
71175;DHT22;58876;51.994;4.472;2023-03-14T16:01:54;8.31;51.02
71175;DHT22;58876;51.994;4.472;2023-03-14T16:04:19;8.03;50.12
71175;DHT22;58876;51.994;4.472;2023-03-14T16:06:45;7.90;50.61
71175;DHT22;58876;51.994;4.472;2023-03-14T16:09:13;7.72;50.40
71175;DHT22;58876;51.994;4.472;2023-03-14T16:11:39;7.69;50.16
71175;DHT22;58876;51.994;4.472;2023-03-14T16:14:05;7.74;50.92
71175;DHT22;58876;51.994;4.472;2023-03-14T16:16:31;7.86;50.97
71175;DHT22;58876;51.994;4.472;2023-03-14T16:18:56;7.86;50.60
71175;DHT22;58876;51.994;4.472;2023-03-14T16:21:21;7.86;49.30
71175;DHT22;58876;51.994;4.472;2023-03-14T16:23:47;7.83;49.67
71175;DHT22;58876;51.994;4.472;2023-03-14T16:26:15;7.91;49.91
71175;DHT22;58876;51.994;4.472;2023-03-14T16:28:42;8.05;50.52
71175;DHT22;58876;51.994;4.472;2023-03-14T16:31:14;8.03;50.95
71175;DHT22;58876;51.994;4.472;2023-03-14T16:33:41;8.08;52.00
71175;DHT22;58876;51.994;4.472;2023-03-14T16:36:09;8.05;51.70
71175;DHT22;58876;51.994;4.472;2023-03-14T16:38:36;8.24;50.95
71175;DHT22;58876;51.994;4.472;2023-03-14T16:41:14;8.30;52.05
71175;DHT22;58876;51.994;4.472;2023-03-14T16:43:40;8.07;50.11
71175;DHT22;58876;51.994;4.472;2023-03-14T16:46:10;7.91;49.61
71175;DHT22;58876;51.994;4.472;2023-03-14T16:48:36;8.04;50.82
71175;DHT22;58876;51.994;4.472;2023-03-14T16:51:02;8.07;50.36
71175;DHT22;58876;51.994;4.472;2023-03-14T16:53:28;8.04;49.82
71175;DHT22;58876;51.994;4.472;2023-03-14T16:55:55;7.77;50.02
71175;DHT22;58876;51.994;4.472;2023-03-14T16:58:21;7.79;50.59
71175;DHT22;58876;51.994;4.472;2023-03-14T17:00:47;7.89;51.27
71175;DHT22;58876;51.994;4.472;2023-03-14T17:03:14;7.93;50.59
71175;DHT22;58876;51.994;4.472;2023-03-14T17:05:51;7.67;48.95
71175;DHT22;58876;51.994;4.472;2023-03-14T17:08:19;7.56;49.78
71175;DHT22;58876;51.994;4.472;2023-03-14T17:10:45;7.55;49.55